createdAt,value
2023-02-15T00:02:02.296Z,-0.78
2023-02-15T00:04:46.943Z,-0.78
2023-02-15T00:07:17.099Z,-0.86
2023-02-15T00:09:45.670Z,-0.85
2023-02-15T00:12:12.154Z,-0.88
2023-02-15T00:14:38.723Z,-0.89
2023-02-15T00:17:05.417Z,-0.81
2023-02-15T00:19:32.245Z,-0.87
2023-02-15T00:21:58.872Z,-1.00
2023-02-15T00:24:25.689Z,-1.05
2023-02-15T00:26:52.194Z,-0.96
2023-02-15T00:29:21.077Z,-0.89
2023-02-15T00:31:47.932Z,-0.84
2023-02-15T00:34:19.122Z,-0.81
2023-02-15T00:36:46.171Z,-0.88
2023-02-15T00:39:13.535Z,-1.04
2023-02-15T00:41:40.058Z,-1.10
2023-02-15T00:44:07.808Z,-1.02
2023-02-15T00:46:35.334Z,-0.98
2023-02-15T00:49:02.728Z,-0.95
2023-02-15T00:51:29.726Z,-1.00
2023-02-15T00:53:56.447Z,-1.12
2023-02-15T00:56:23.228Z,-1.18
2023-02-15T00:58:49.809Z,-1.11
2023-02-15T01:01:20.447Z,-1.05
2023-02-15T01:03:47.616Z,-1.09
2023-02-15T01:06:17.066Z,-1.18
2023-02-15T01:08:45.990Z,-1.18
2023-02-15T01:11:22.718Z,-1.17
2023-02-15T01:13:59.445Z,-1.25
2023-02-15T01:16:28.892Z,-1.48
2023-02-15T01:18:55.600Z,-1.20
2023-02-15T01:21:25.816Z,-1.13
2023-02-15T01:23:52.636Z,-1.29
2023-02-15T01:26:19.618Z,-1.36
2023-02-15T01:28:47.229Z,-1.27
2023-02-15T01:31:20.742Z,-1.22
2023-02-15T01:33:50.074Z,-1.18
2023-02-15T01:36:18.240Z,-1.16
2023-02-15T01:38:44.889Z,-1.21
2023-02-15T01:41:28.034Z,-1.38
2023-02-15T01:44:24.826Z,-1.47
2023-02-15T01:47:01.566Z,-1.58
2023-02-15T01:49:29.232Z,-1.44
2023-02-15T01:51:56.309Z,-1.39
2023-02-15T01:54:36.738Z,-1.47
2023-02-15T01:57:20.262Z,-1.53
2023-02-15T01:59:55.967Z,-1.47
2023-02-15T02:02:25.336Z,-1.40
2023-02-15T02:04:59.260Z,-1.51
2023-02-15T02:07:31.388Z,-1.53
2023-02-15T02:09:57.883Z,-1.52
2023-02-15T02:12:26.028Z,-1.58
2023-02-15T02:14:55.250Z,-1.65
2023-02-15T02:17:58.109Z,-1.71
2023-02-15T02:21:16.155Z,-1.69
2023-02-15T02:24:08.527Z,-1.66
2023-02-15T02:27:13.376Z,-1.85
2023-02-15T02:30:09.940Z,-1.90
2023-02-15T02:35:52.074Z,-1.83
2023-02-15T02:38:41.303Z,-2.12
2023-02-15T02:41:42.347Z,-2.09
2023-02-15T02:44:35.901Z,-1.90
2023-02-15T02:47:19.816Z,-1.89
2023-02-15T02:49:46.501Z,-1.94
2023-02-15T02:52:42.308Z,-2.00
2023-02-15T02:55:24.536Z,-1.98
2023-02-15T02:58:10.600Z,-1.86
2023-02-15T03:00:58.224Z,-1.93
2023-02-15T03:03:40.449Z,-2.06
2023-02-15T03:06:18.859Z,-2.03
2023-02-15T03:09:02.568Z,-2.05
2023-02-15T03:11:29.644Z,-1.92
2023-02-15T03:13:56.374Z,-1.93
2023-02-15T03:16:26.723Z,-2.03
2023-02-15T03:19:09.306Z,-2.03
2023-02-15T03:22:04.325Z,-1.99
2023-02-15T03:24:41.965Z,-2.11
2023-02-15T03:27:18.205Z,-2.07
2023-02-15T03:29:54.737Z,-2.14
2023-02-15T03:32:24.083Z,-2.17
2023-02-15T03:34:50.767Z,-2.15
2023-02-15T03:37:36.332Z,-2.21
2023-02-15T03:40:45.586Z,-2.32
2023-02-15T03:43:22.977Z,-2.17
2023-02-15T03:45:58.010Z,-2.07
2023-02-15T03:48:35.056Z,-1.99
2023-02-15T03:51:36.276Z,-2.09
2023-02-15T03:54:42.714Z,-2.05
2023-02-15T03:57:42.010Z,-2.04
2023-02-15T04:00:43.822Z,-2.23
2023-02-15T04:03:13.955Z,-2.19
2023-02-15T04:05:46.145Z,-2.16
2023-02-15T04:08:13.820Z,-2.10
2023-02-15T04:10:57.008Z,-2.03
2023-02-15T04:13:32.056Z,-2.07
2023-02-15T04:16:05.385Z,-2.08
2023-02-15T04:18:53.607Z,-2.15
2023-02-15T04:21:41.378Z,-2.41
2023-02-15T04:24:30.118Z,-2.54
2023-02-15T04:26:56.805Z,-2.64
2023-02-15T04:29:25.492Z,-2.54
2023-02-15T04:31:54.885Z,-2.39
2023-02-15T04:34:21.868Z,-2.47
2023-02-15T04:36:48.604Z,-2.46
2023-02-15T04:39:19.448Z,-2.43
2023-02-15T04:41:46.433Z,-2.30
2023-02-15T04:44:13.088Z,-2.26
2023-02-15T04:46:39.579Z,-2.31
2023-02-15T04:49:06.412Z,-2.38
2023-02-15T04:51:32.912Z,-2.28
2023-02-15T04:53:59.355Z,-2.16
2023-02-15T04:56:25.858Z,-2.17
2023-02-15T04:58:52.372Z,-2.25
2023-02-15T05:01:19.528Z,-2.37
2023-02-15T05:03:46.054Z,-2.33
2023-02-15T05:06:24.127Z,-2.36
2023-02-15T05:08:51.408Z,-2.29
2023-02-15T05:11:18.006Z,-2.29
2023-02-15T05:13:44.452Z,-2.47
2023-02-15T05:16:11.195Z,-2.51
2023-02-15T05:18:37.757Z,-2.42
2023-02-15T05:21:04.973Z,-2.37
2023-02-15T05:23:31.447Z,-2.35
2023-02-15T05:26:17.519Z,-2.37
2023-02-15T05:28:44.113Z,-2.54
2023-02-15T05:31:19.972Z,-2.69
2023-02-15T05:33:47.194Z,-2.71
2023-02-15T05:36:13.956Z,-2.76
2023-02-15T05:38:40.453Z,-2.86
2023-02-15T05:41:09.134Z,-2.86
2023-02-15T05:43:35.999Z,-2.71
2023-02-15T05:46:04.801Z,-2.51
2023-02-15T05:48:33.023Z,-2.46
2023-02-15T05:51:10.704Z,-2.61
2023-02-15T05:53:39.532Z,-2.75
2023-02-15T05:56:12.909Z,-2.72
2023-02-15T05:58:55.082Z,-2.78
2023-02-15T06:01:24.544Z,-2.63
2023-02-15T06:03:51.321Z,-2.53
2023-02-15T06:06:17.849Z,-2.65
2023-02-15T06:08:44.655Z,-2.61
2023-02-15T06:11:11.723Z,-2.66
2023-02-15T06:13:39.047Z,-2.64
2023-02-15T06:16:07.297Z,-2.71
2023-02-15T06:18:34.115Z,-2.72
2023-02-15T06:21:00.615Z,-2.71
2023-02-15T06:23:33.017Z,-2.76
2023-02-15T06:25:59.654Z,-2.79
2023-02-15T06:28:29.114Z,-2.61
2023-02-15T06:30:55.636Z,-2.56
2023-02-15T06:33:22.847Z,-2.56
2023-02-15T06:35:49.333Z,-2.48
2023-02-15T06:38:15.878Z,-2.40
2023-02-15T06:40:42.390Z,-2.30
2023-02-15T06:43:08.882Z,-2.31
2023-02-15T06:45:35.520Z,-2.44
2023-02-15T06:48:12.074Z,-2.54
2023-02-15T06:50:41.666Z,-2.56
2023-02-15T06:53:08.120Z,-2.58
2023-02-15T06:55:34.665Z,-2.61
2023-02-15T06:58:01.129Z,-2.59
2023-02-15T07:00:27.772Z,-2.41
2023-02-15T07:02:56.569Z,-2.34
2023-02-15T07:05:23.645Z,-2.34
2023-02-15T07:07:53.371Z,-2.31
2023-02-15T07:10:19.916Z,-2.28
2023-02-15T07:12:46.982Z,-2.30
2023-02-15T07:15:21.548Z,-2.32
2023-02-15T07:17:50.028Z,-2.30
2023-02-15T07:20:25.727Z,-2.36
2023-02-15T07:22:52.813Z,-2.24
2023-02-15T07:25:19.566Z,-2.19
2023-02-15T07:27:46.331Z,-2.16
2023-02-15T07:30:17.193Z,-2.09
2023-02-15T07:33:05.070Z,-2.00
2023-02-15T07:35:33.406Z,-2.14
2023-02-15T07:37:59.934Z,-2.25
2023-02-15T07:40:28.981Z,-2.26
2023-02-15T07:42:59.958Z,-2.15
2023-02-15T07:45:26.584Z,-2.04
2023-02-15T07:47:53.125Z,-1.99
2023-02-15T07:50:19.568Z,-1.98
2023-02-15T07:52:46.071Z,-1.94
2023-02-15T07:55:15.567Z,-1.91
2023-02-15T07:57:47.188Z,-1.94
2023-02-15T08:00:16.649Z,-1.92
2023-02-15T08:02:47.977Z,-2.01
2023-02-15T08:05:14.456Z,-1.91
2023-02-15T08:07:40.907Z,-1.82
2023-02-15T08:10:12.993Z,-1.77
2023-02-15T08:12:39.477Z,-1.76
2023-02-15T08:15:06.248Z,-1.74
2023-02-15T08:17:44.140Z,-1.81
2023-02-15T08:20:23.331Z,-1.70
2023-02-15T08:22:50.078Z,-1.60
2023-02-15T08:25:16.602Z,-1.61
2023-02-15T08:27:43.213Z,-1.63
2023-02-15T08:30:10.482Z,-1.56
2023-02-15T08:32:39.299Z,-1.63
2023-02-15T08:35:06.360Z,-1.56
2023-02-15T08:37:32.904Z,-1.46
2023-02-15T08:39:59.478Z,-1.30
2023-02-15T08:42:26.020Z,-1.38
2023-02-15T08:44:55.037Z,-1.41
2023-02-15T08:47:21.536Z,-1.35
2023-02-15T08:49:48.055Z,-1.24
2023-02-15T08:52:14.621Z,-1.11
2023-02-15T08:54:41.206Z,-0.99
2023-02-15T08:57:13.051Z,-0.85
2023-02-15T08:59:39.539Z,-0.84
2023-02-15T09:02:06.425Z,-0.70
2023-02-15T09:04:32.983Z,-0.60
2023-02-15T09:06:59.469Z,-0.56
2023-02-15T09:09:32.926Z,-0.44
2023-02-15T09:11:59.822Z,-0.40
2023-02-15T09:14:27.798Z,-0.33
2023-02-15T09:16:55.239Z,-0.27
2023-02-15T09:19:24.042Z,-0.23
2023-02-15T09:21:51.170Z,-0.11
2023-02-15T09:24:18.551Z,-0.08
2023-02-15T09:26:48.822Z,-0.05
2023-02-15T09:29:16.963Z,0.03
2023-02-15T09:31:50.802Z,0.12
2023-02-15T09:34:21.666Z,0.18
2023-02-15T09:36:49.071Z,0.26
2023-02-15T09:39:19.778Z,0.39
2023-02-15T09:42:16.328Z,0.30
2023-02-15T09:45:15.792Z,0.30
2023-02-15T09:48:13.316Z,0.35
2023-02-15T09:51:04.552Z,0.49
2023-02-15T09:54:04.950Z,0.49
2023-02-15T09:56:40.546Z,0.60
2023-02-15T09:59:37.766Z,0.64
2023-02-15T10:02:28.443Z,0.73
2023-02-15T10:05:29.223Z,0.74
2023-02-15T10:08:36.538Z,0.81
2023-02-15T10:11:45.876Z,0.91
2023-02-15T10:15:03.820Z,0.98
2023-02-15T10:18:17.384Z,0.98
2023-02-15T10:21:09.563Z,1.08
2023-02-15T10:23:55.406Z,1.13
2023-02-15T10:26:26.443Z,1.15
2023-02-15T10:29:37.363Z,1.23
2023-02-15T10:32:25.592Z,1.31
2023-02-15T10:35:26.801Z,1.35
2023-02-15T10:38:29.978Z,1.47
2023-02-15T10:41:38.036Z,1.62
2023-02-15T10:44:22.129Z,1.64
2023-02-15T10:47:03.061Z,1.73
2023-02-15T10:49:53.478Z,1.84
2023-02-15T10:52:58.046Z,1.90
2023-02-15T10:56:17.034Z,2.05
2023-02-15T10:59:33.222Z,2.18
2023-02-15T11:02:37.600Z,2.24
2023-02-15T11:06:02.243Z,2.31
2023-02-15T11:08:35.391Z,2.43
2023-02-15T11:11:11.969Z,2.47
2023-02-15T11:13:49.165Z,2.43
2023-02-15T11:16:29.102Z,2.56
2023-02-15T11:19:06.635Z,2.71
2023-02-15T11:21:41.056Z,2.79
2023-02-15T11:24:19.341Z,2.88
2023-02-15T11:27:00.806Z,2.96
2023-02-15T11:29:38.269Z,3.00
2023-02-15T11:32:20.459Z,3.07
2023-02-15T11:35:26.414Z,3.07
2023-02-15T11:38:18.014Z,3.11
2023-02-15T11:40:52.753Z,3.23
2023-02-15T11:43:37.583Z,3.30
2023-02-15T11:46:04.666Z,3.50
2023-02-15T11:48:33.496Z,3.53
2023-02-15T11:51:03.770Z,3.76
2023-02-15T11:53:38.658Z,3.83
2023-02-15T11:56:07.038Z,3.94
2023-02-15T11:58:45.618Z,4.08
2023-02-15T12:01:32.997Z,4.28
2023-02-15T12:04:11.529Z,4.45
2023-02-15T12:06:49.080Z,4.69
2023-02-15T12:09:28.737Z,4.88
2023-02-15T12:12:20.940Z,4.90
2023-02-15T12:15:03.150Z,4.94
2023-02-15T12:17:39.039Z,4.75
2023-02-15T12:20:28.991Z,4.68
2023-02-15T12:23:03.447Z,4.63
2023-02-15T12:25:54.402Z,4.72
2023-02-15T12:28:40.875Z,4.88
2023-02-15T12:31:44.757Z,5.02
2023-02-15T12:34:27.086Z,5.03
2023-02-15T12:37:03.009Z,5.12
2023-02-15T12:39:32.461Z,5.18
2023-02-15T12:42:20.494Z,5.29
2023-02-15T12:45:03.240Z,5.48
2023-02-15T12:47:32.495Z,5.66
2023-02-15T12:50:26.915Z,5.71
2023-02-15T12:53:15.144Z,5.74
2023-02-15T12:55:53.892Z,5.83
2023-02-15T12:58:26.065Z,5.87
2023-02-15T13:01:16.464Z,5.96
2023-02-15T13:04:15.443Z,5.88
2023-02-15T13:06:52.579Z,5.95
2023-02-15T13:09:25.993Z,6.16
2023-02-15T13:11:53.558Z,6.24
2023-02-15T13:14:32.667Z,6.24
2023-02-15T13:17:06.162Z,6.31
2023-02-15T13:19:47.387Z,6.20
2023-02-15T13:22:19.636Z,6.29
2023-02-15T13:24:58.316Z,6.33
2023-02-15T13:27:58.385Z,6.22
2023-02-15T13:30:39.654Z,6.25
2023-02-15T13:33:15.574Z,6.32
2023-02-15T13:36:15.506Z,6.38
2023-02-15T13:38:56.564Z,6.49
2023-02-15T13:42:03.215Z,6.48
2023-02-15T13:44:37.378Z,6.49
2023-02-15T13:47:40.890Z,6.40
2023-02-15T13:51:00.029Z,6.44
2023-02-15T13:54:02.129Z,6.64
2023-02-15T13:56:50.114Z,6.70
2023-02-15T13:59:42.453Z,6.61
2023-02-15T14:02:11.868Z,6.67
2023-02-15T14:05:16.328Z,6.66
2023-02-15T14:08:28.844Z,6.71
2023-02-15T14:11:25.764Z,6.71
2023-02-15T14:14:36.654Z,6.89
2023-02-15T14:17:45.307Z,6.92
2023-02-15T14:20:36.794Z,7.00
2023-02-15T14:23:59.703Z,6.99
2023-02-15T14:26:57.680Z,6.95
2023-02-15T14:29:41.128Z,7.12
2023-02-15T14:32:36.367Z,6.94
2023-02-15T14:35:13.466Z,6.93
2023-02-15T14:37:59.976Z,6.91
2023-02-15T14:41:06.071Z,6.89
2023-02-15T14:44:08.299Z,6.97
2023-02-15T14:46:43.107Z,6.90
2023-02-15T14:49:19.093Z,6.85
2023-02-15T14:51:48.514Z,6.78
2023-02-15T14:54:23.653Z,6.75
2023-02-15T14:57:02.318Z,6.65
2023-02-15T14:59:59.267Z,6.63
2023-02-15T15:02:49.670Z,6.61
2023-02-15T15:05:49.975Z,6.55
2023-02-15T15:08:33.912Z,6.70
2023-02-15T15:11:42.623Z,6.68
2023-02-15T15:14:12.345Z,6.64
2023-02-15T15:16:38.716Z,6.63
2023-02-15T15:19:12.922Z,6.64
2023-02-15T15:21:51.218Z,6.51
2023-02-15T15:24:39.404Z,6.45
2023-02-15T15:27:47.480Z,6.48
2023-02-15T15:30:13.889Z,6.46
2023-02-15T15:33:52.073Z,6.26
2023-02-15T15:36:58.982Z,6.18
2023-02-15T15:40:10.887Z,6.08
2023-02-15T15:43:34.806Z,6.08
2023-02-15T15:46:52.608Z,6.11
2023-02-15T15:49:25.281Z,6.11
2023-02-15T15:51:52.456Z,5.96
2023-02-15T15:54:24.094Z,5.95
2023-02-15T15:57:03.058Z,5.95
2023-02-15T15:59:33.906Z,5.91
2023-02-15T16:02:08.955Z,5.84
2023-02-15T16:04:36.372Z,5.71
2023-02-15T16:07:18.202Z,5.65
2023-02-15T16:10:27.345Z,5.68
2023-02-15T16:12:55.684Z,5.52
2023-02-15T16:15:27.324Z,5.36
2023-02-15T16:17:58.715Z,5.34
2023-02-15T16:20:35.019Z,5.24
2023-02-15T16:23:20.377Z,5.15
2023-02-15T16:26:10.312Z,5.12
2023-02-15T16:28:36.957Z,5.06
2023-02-15T16:31:16.451Z,5.03
2023-02-15T16:33:45.732Z,5.07
2023-02-15T16:36:28.793Z,5.09
2023-02-15T16:38:57.964Z,5.16
2023-02-15T16:41:30.983Z,5.13
2023-02-15T16:44:06.073Z,5.09
2023-02-15T16:46:38.754Z,4.93
2023-02-15T16:49:17.438Z,4.86
2023-02-15T16:51:46.283Z,4.83
2023-02-15T16:54:23.664Z,4.48
2023-02-15T16:56:50.277Z,4.34
2023-02-15T16:59:45.867Z,4.16
2023-02-15T17:02:49.336Z,4.21
2023-02-15T17:05:11.778Z,4.26
2023-02-15T17:07:49.135Z,4.17
2023-02-15T17:10:38.273Z,4.01
2023-02-15T17:13:12.824Z,4.01
2023-02-15T17:15:45.532Z,3.89
2023-02-15T17:18:24.305Z,3.74
2023-02-15T17:20:56.607Z,3.53
2023-02-15T17:23:41.353Z,3.41
2023-02-15T17:26:19.676Z,3.32
2023-02-15T17:28:53.725Z,3.35
2023-02-15T17:31:24.978Z,3.42
2023-02-15T17:33:55.226Z,3.35
2023-02-15T17:36:25.489Z,3.24
2023-02-15T17:38:57.693Z,3.08
2023-02-15T17:41:30.171Z,3.09
2023-02-15T17:43:57.679Z,3.15
2023-02-15T17:46:26.544Z,3.13
2023-02-15T17:48:55.986Z,3.19
2023-02-15T17:51:24.038Z,3.16
2023-02-15T17:54:09.638Z,2.99
2023-02-15T17:56:38.739Z,3.04
2023-02-15T17:59:07.610Z,2.94
2023-02-15T18:02:07.730Z,2.86
2023-02-15T18:04:56.115Z,2.90
2023-02-15T18:07:42.039Z,2.75
2023-02-15T18:10:37.548Z,2.72
2023-02-15T18:13:04.476Z,2.73
2023-02-15T18:15:31.422Z,2.60
2023-02-15T18:17:58.151Z,2.57
2023-02-15T18:20:31.458Z,2.56
2023-02-15T18:22:58.208Z,2.44
2023-02-15T18:25:25.645Z,2.48
2023-02-15T18:27:55.035Z,2.39
2023-02-15T18:30:26.399Z,2.33
2023-02-15T18:32:56.956Z,2.10
2023-02-15T18:35:28.738Z,1.97
2023-02-15T18:37:56.142Z,1.73
2023-02-15T18:40:27.488Z,1.61
2023-02-15T18:42:56.926Z,1.64
2023-02-15T18:45:28.591Z,1.49
2023-02-15T18:47:55.376Z,1.52
2023-02-15T18:50:28.880Z,1.57
2023-02-15T18:52:55.525Z,1.45
2023-02-15T18:55:28.265Z,1.33
2023-02-15T18:57:57.355Z,1.37
2023-02-15T19:00:34.775Z,1.38
2023-02-15T19:03:02.762Z,1.38
2023-02-15T19:05:32.761Z,1.17
2023-02-15T19:08:02.336Z,1.12
2023-02-15T19:10:32.929Z,1.22
2023-02-15T19:12:59.440Z,1.17
2023-02-15T19:15:30.313Z,1.25
2023-02-15T19:17:57.066Z,1.10
2023-02-15T19:20:35.598Z,0.97
2023-02-15T19:23:02.934Z,1.08
2023-02-15T19:25:37.541Z,1.15
2023-02-15T19:28:17.215Z,1.01
2023-02-15T19:30:44.268Z,1.09
2023-02-15T19:33:20.287Z,0.98
2023-02-15T19:35:53.906Z,0.94
2023-02-15T19:38:26.798Z,0.85
2023-02-15T19:40:56.711Z,0.88
2023-02-15T19:43:26.083Z,0.95
2023-02-15T19:45:53.055Z,0.79
2023-02-15T19:48:19.709Z,0.81
2023-02-15T19:50:48.144Z,0.95
2023-02-15T19:53:27.215Z,0.83
2023-02-15T19:55:54.662Z,0.75
2023-02-15T19:58:21.885Z,0.85
2023-02-15T20:00:50.831Z,0.88
2023-02-15T20:03:17.711Z,0.86
2023-02-15T20:05:44.870Z,0.67
2023-02-15T20:08:19.344Z,0.53
2023-02-15T20:10:46.121Z,0.47
2023-02-15T20:13:18.848Z,0.57
2023-02-15T20:15:46.670Z,0.73
2023-02-15T20:18:13.413Z,0.60
2023-02-15T20:20:55.352Z,0.43
2023-02-15T20:23:29.048Z,0.39
2023-02-15T20:26:01.395Z,0.31
2023-02-15T20:28:31.506Z,0.28
2023-02-15T20:30:59.906Z,0.27
2023-02-15T20:33:26.610Z,0.23
2023-02-15T20:35:55.534Z,0.20
2023-02-15T20:38:30.866Z,0.20
2023-02-15T20:41:18.929Z,0.15
2023-02-15T20:43:45.834Z,0.22
2023-02-15T20:46:12.399Z,0.29
2023-02-15T20:48:38.963Z,0.43
2023-02-15T20:51:06.835Z,0.42
2023-02-15T20:53:33.489Z,0.29
2023-02-15T20:55:59.949Z,0.34
2023-02-15T20:58:29.880Z,0.31
2023-02-15T21:00:59.149Z,0.22
2023-02-15T21:03:30.702Z,0.21
2023-02-15T21:05:59.198Z,0.14
2023-02-15T21:08:26.709Z,0.14
2023-02-15T21:10:54.407Z,0.24
2023-02-15T21:13:26.893Z,0.33
2023-02-15T21:15:55.636Z,0.45
2023-02-15T21:18:29.810Z,0.54
2023-02-15T21:21:00.634Z,0.51
2023-02-15T21:23:34.349Z,0.37
2023-02-15T21:26:01.895Z,0.32
2023-02-15T21:28:29.958Z,0.25
2023-02-15T21:30:58.388Z,0.23
2023-02-15T21:33:26.688Z,0.28
2023-02-15T21:35:57.600Z,0.09
2023-02-15T21:38:30.492Z,0.11
2023-02-15T21:41:17.047Z,0.13
2023-02-15T21:44:02.040Z,0.08
2023-02-15T21:46:57.990Z,0.08
2023-02-15T21:49:24.513Z,-0.10
2023-02-15T21:52:09.787Z,-0.14
2023-02-15T21:54:36.301Z,-0.12
2023-02-15T21:57:03.607Z,-0.10
2023-02-15T21:59:30.046Z,-0.01
2023-02-15T22:01:56.670Z,-0.16
2023-02-15T22:04:29.403Z,-0.27
2023-02-15T22:06:56.396Z,-0.22
2023-02-15T22:09:26.872Z,-0.11
2023-02-15T22:11:54.805Z,-0.02
2023-02-15T22:14:40.274Z,-0.03
2023-02-15T22:17:23.208Z,-0.00
2023-02-15T22:19:50.480Z,0.02
2023-02-15T22:22:17.746Z,0.04
2023-02-15T22:24:45.445Z,-0.02
2023-02-15T22:27:27.562Z,-0.22
2023-02-15T22:29:55.362Z,-0.30
2023-02-15T22:32:25.925Z,-0.35
2023-02-15T22:34:54.289Z,-0.40
2023-02-15T22:37:21.712Z,-0.57
2023-02-15T22:39:48.492Z,-0.48
2023-02-15T22:42:27.870Z,-0.37
2023-02-15T22:44:56.755Z,-0.25
2023-02-15T22:47:26.816Z,-0.38
2023-02-15T22:49:54.580Z,-0.48
2023-02-15T22:52:21.701Z,-0.37
2023-02-15T22:54:48.242Z,-0.38
2023-02-15T22:57:26.697Z,-0.49
2023-02-15T22:59:53.198Z,-0.62
2023-02-15T23:02:19.713Z,-0.55
2023-02-15T23:04:47.121Z,-0.42
2023-02-15T23:07:19.015Z,-0.52
2023-02-15T23:09:46.094Z,-0.65
2023-02-15T23:12:49.006Z,-0.61
2023-02-15T23:15:15.588Z,-0.45
2023-02-15T23:17:42.045Z,-0.35
2023-02-15T23:20:15.085Z,-0.33
2023-02-15T23:22:43.593Z,-0.39
2023-02-15T23:25:11.666Z,-0.52
2023-02-15T23:27:56.717Z,-0.47
2023-02-15T23:30:23.923Z,-0.50
2023-02-15T23:32:54.398Z,-0.42
2023-02-15T23:35:21.046Z,-0.40
2023-02-15T23:37:48.289Z,-0.30
2023-02-15T23:40:39.499Z,-0.46
2023-02-15T23:43:14.727Z,-0.55
2023-02-15T23:45:41.251Z,-0.59
2023-02-15T23:48:35.059Z,-0.65
2023-02-15T23:51:02.611Z,-0.56
2023-02-15T23:53:30.146Z,-0.58
2023-02-15T23:55:58.086Z,-0.63
2023-02-15T23:58:36.120Z,-0.70
